createdAt,value
2024-02-02T00:00:26.720Z,101845.78
2024-02-02T00:05:49.742Z,101840.81
2024-02-02T00:11:16.165Z,101842.47
2024-02-02T00:16:39.086Z,101845.34
2024-02-02T00:22:02.000Z,101839.94
2024-02-02T00:27:26.295Z,101836.22
2024-02-02T00:32:49.538Z,101848.72
2024-02-02T00:38:12.820Z,101839.75
2024-02-02T00:43:38.271Z,101838.50
2024-02-02T00:49:01.417Z,101827.91
2024-02-02T00:54:24.536Z,101828.94
2024-02-02T00:59:51.522Z,101820.22
2024-02-02T01:05:15.205Z,101814.81
2024-02-02T01:10:38.052Z,101802.31
2024-02-02T01:16:02.251Z,101800.88
2024-02-02T01:21:25.225Z,101790.06
2024-02-02T01:26:48.242Z,101796.28
2024-02-02T01:32:12.493Z,101787.56
2024-02-02T01:37:35.712Z,101795.84
2024-02-02T01:42:58.522Z,101807.72
2024-02-02T01:48:22.950Z,101795.47
2024-02-02T01:53:46.045Z,101784.25
2024-02-02T01:59:09.348Z,101790.03
2024-02-02T02:04:33.602Z,101792.16
2024-02-02T02:09:56.839Z,101799.00
2024-02-02T02:15:20.218Z,101798.78
2024-02-02T02:20:46.117Z,101800.88
2024-02-02T02:26:10.305Z,101807.47
2024-02-02T02:31:33.621Z,101790.88
2024-02-02T02:36:56.667Z,101787.97
2024-02-02T02:42:21.357Z,101782.97
2024-02-02T02:47:44.493Z,101784.44
2024-02-02T02:53:07.992Z,101784.59
2024-02-02T02:58:32.301Z,101769.00
2024-02-02T03:03:55.314Z,101768.78
2024-02-02T03:09:18.314Z,101759.69
2024-02-02T03:14:42.487Z,101759.88
2024-02-02T03:20:08.783Z,101758.63
2024-02-02T03:25:31.743Z,101745.75
2024-02-02T03:30:55.959Z,101746.81
2024-02-02T03:36:18.849Z,101740.06
2024-02-02T03:41:41.798Z,101751.94
2024-02-02T03:47:06.314Z,101752.53
2024-02-02T03:52:29.138Z,101756.75
2024-02-02T03:57:52.319Z,101751.59
2024-02-02T04:03:16.745Z,101758.66
2024-02-02T04:08:41.118Z,101756.91
2024-02-02T04:14:05.192Z,101768.34
2024-02-02T04:19:29.508Z,101767.50
2024-02-02T04:24:53.636Z,101764.19
2024-02-02T04:30:18.296Z,101759.19
2024-02-02T04:35:42.455Z,101758.03
2024-02-02T04:41:06.147Z,101763.63
2024-02-02T04:46:29.151Z,101761.59
2024-02-02T04:51:53.368Z,101758.88
2024-02-02T04:57:16.478Z,101739.91
2024-02-02T05:02:39.474Z,101732.66
2024-02-02T05:08:03.737Z,101730.16
2024-02-02T05:13:26.751Z,101733.28
2024-02-02T05:18:51.856Z,101725.94
2024-02-02T05:24:29.651Z,101731.94
2024-02-02T05:30:01.767Z,101748.44
2024-02-02T05:35:24.663Z,101745.53
2024-02-02T05:40:50.091Z,101755.28
2024-02-02T05:46:13.353Z,101755.91
2024-02-02T05:51:36.585Z,101747.63
2024-02-02T05:57:03.669Z,101735.34
2024-02-02T06:02:26.692Z,101719.78
2024-02-02T06:07:49.499Z,101703.53
2024-02-02T06:13:13.748Z,101695.63
2024-02-02T06:18:37.103Z,101700.59
2024-02-02T06:24:00.301Z,101684.56
2024-02-02T06:29:25.006Z,101684.34
2024-02-02T06:34:51.992Z,101671.78
2024-02-02T06:40:15.429Z,101697.13
2024-02-02T06:45:39.680Z,101691.31
2024-02-02T06:51:05.197Z,101676.34
2024-02-02T06:56:39.257Z,101683.50
2024-02-02T07:02:18.599Z,101686.00
2024-02-02T07:07:42.581Z,101660.13
2024-02-02T07:13:05.811Z,101657.38
2024-02-02T07:18:37.765Z,101664.53
2024-02-02T07:24:01.795Z,101682.84
2024-02-02T07:29:39.716Z,101667.88
2024-02-02T07:35:04.854Z,101669.50
2024-02-02T07:41:02.695Z,101682.53
2024-02-02T07:46:26.043Z,101683.41
2024-02-02T07:51:50.259Z,101691.03
2024-02-02T07:57:13.183Z,101699.16
2024-02-02T08:02:36.004Z,101702.63
2024-02-02T08:08:00.168Z,101700.38
2024-02-02T08:13:23.620Z,101700.06
2024-02-02T08:18:46.770Z,101688.69
2024-02-02T08:24:11.768Z,101681.59
2024-02-02T08:29:34.685Z,101677.09
2024-02-02T08:34:57.530Z,101668.97
2024-02-02T08:40:36.313Z,101668.50
2024-02-02T08:46:08.754Z,101647.69
2024-02-02T08:51:53.326Z,101642.47
2024-02-02T08:57:34.069Z,101593.13
2024-02-02T09:03:07.107Z,101583.56
2024-02-02T09:08:36.201Z,101605.03
2024-02-02T09:14:12.108Z,101601.97
2024-02-02T09:19:42.559Z,101571.53
2024-02-02T09:25:11.945Z,101564.81
2024-02-02T09:30:36.167Z,101547.84
2024-02-02T09:35:59.760Z,101531.34
2024-02-02T09:41:54.121Z,101536.41
2024-02-02T09:48:01.336Z,101534.75
2024-02-02T09:53:46.074Z,101546.72
2024-02-02T09:59:16.690Z,101554.00
2024-02-02T10:04:53.255Z,101541.28
2024-02-02T10:10:41.559Z,101516.41
2024-02-02T10:16:20.417Z,101489.06
2024-02-02T10:21:56.789Z,101487.50
2024-02-02T10:27:34.172Z,101488.94
2024-02-02T10:33:25.738Z,101494.59
2024-02-02T10:39:02.480Z,101488.47
2024-02-02T10:44:43.463Z,101486.34
2024-02-02T10:50:22.179Z,101472.06
2024-02-02T10:56:02.425Z,101442.69
2024-02-02T11:01:34.845Z,101439.75
2024-02-02T11:07:08.030Z,101420.41
2024-02-02T11:12:43.328Z,101421.69
2024-02-02T11:18:25.979Z,101414.84
2024-02-02T11:24:00.072Z,101403.50
2024-02-02T11:29:38.853Z,101383.78
2024-02-02T11:35:08.625Z,101373.06
2024-02-02T11:40:34.736Z,101358.31
2024-02-02T11:46:02.376Z,101355.06
2024-02-02T11:51:27.285Z,101347.13
2024-02-02T11:56:53.237Z,101339.13
2024-02-02T12:02:35.062Z,101320.63
2024-02-02T12:08:05.087Z,101320.81
2024-02-02T12:13:32.678Z,101300.84
2024-02-02T12:18:57.707Z,101292.84
2024-02-02T12:24:22.338Z,101292.63
2024-02-02T12:29:45.783Z,101306.63
2024-02-02T12:40:36.688Z,101291.25
2024-02-02T12:46:00.123Z,101268.56
2024-02-02T12:51:24.677Z,101266.34
2024-02-02T12:56:47.880Z,101245.22
2024-02-02T13:02:14.815Z,101267.41
2024-02-02T13:07:39.402Z,101259.59
2024-02-02T13:13:11.994Z,101264.09
2024-02-02T13:18:37.999Z,101243.75
2024-02-02T13:24:05.198Z,101233.94
2024-02-02T13:29:28.550Z,101203.53
2024-02-02T13:34:54.259Z,101189.09
2024-02-02T13:40:18.534Z,101181.28
2024-02-02T13:45:42.261Z,101189.47
2024-02-02T13:51:06.404Z,101190.78
2024-02-02T13:56:31.113Z,101175.16
2024-02-02T14:01:54.306Z,101182.28
2024-02-02T14:07:18.886Z,101163.25
2024-02-02T14:12:43.256Z,101170.56
2024-02-02T14:18:07.274Z,101187.84
2024-02-02T14:23:32.251Z,101180.59
2024-02-02T14:29:01.228Z,101173.75
2024-02-02T14:34:25.500Z,101151.91
2024-02-02T14:39:49.805Z,101144.91
2024-02-02T14:45:14.219Z,101144.06
2024-02-02T14:50:37.171Z,101134.28
2024-02-02T14:56:00.301Z,101125.75
2024-02-02T15:01:29.255Z,101114.88
2024-02-02T15:06:53.178Z,101098.56
2024-02-02T15:12:16.139Z,101077.75
2024-02-02T15:17:40.673Z,101071.63
2024-02-02T15:23:03.715Z,101066.75
2024-02-02T15:28:26.763Z,101067.88
2024-02-02T15:33:51.131Z,101056.13
2024-02-02T15:39:23.691Z,101060.09
2024-02-02T15:44:54.495Z,101056.00
2024-02-02T15:50:18.737Z,101061.13
2024-02-02T15:55:41.831Z,101047.81
2024-02-02T16:01:05.705Z,101047.88
2024-02-02T16:06:30.343Z,101051.16
2024-02-02T16:11:53.203Z,101047.00
2024-02-02T16:17:16.144Z,101049.06
2024-02-02T16:22:42.390Z,101049.22
2024-02-02T16:28:05.891Z,101048.50
2024-02-02T16:33:28.956Z,101036.50
2024-02-02T16:38:53.318Z,101035.91
2024-02-02T16:44:18.861Z,101008.16
2024-02-02T16:49:44.505Z,101009.44
2024-02-02T16:55:10.153Z,101000.44
2024-02-02T17:00:33.287Z,101000.06
2024-02-02T17:05:56.377Z,101005.50
2024-02-02T17:11:21.844Z,100994.44
2024-02-02T17:16:44.947Z,100996.78
2024-02-02T17:22:07.823Z,101004.94
2024-02-02T17:27:32.000Z,101012.03
2024-02-02T17:32:57.117Z,101019.72
2024-02-02T17:38:20.161Z,101041.28
2024-02-02T17:43:46.257Z,101027.59
2024-02-02T17:49:09.531Z,101060.84
2024-02-02T17:54:35.173Z,101065.66
2024-02-02T17:59:59.434Z,101087.63
2024-02-02T18:05:22.539Z,101088.19
2024-02-02T18:10:45.408Z,101089.34
2024-02-02T18:16:11.968Z,101100.00
2024-02-02T18:21:36.460Z,101085.34
2024-02-02T18:26:59.436Z,101084.53
2024-02-02T18:32:23.818Z,101092.28
2024-02-02T18:37:48.676Z,101105.50
2024-02-02T18:43:11.583Z,101101.31
2024-02-02T18:48:40.137Z,101116.13
2024-02-02T18:54:03.665Z,101118.53
2024-02-02T18:59:26.680Z,101103.53
2024-02-02T19:04:52.025Z,101110.13
2024-02-02T19:10:16.701Z,101091.69
2024-02-02T19:15:39.644Z,101100.75
2024-02-02T19:21:04.061Z,101113.91
2024-02-02T19:26:27.131Z,101111.47
2024-02-02T19:31:50.033Z,101093.16
2024-02-02T19:37:14.240Z,101090.84
2024-02-02T19:42:37.175Z,101111.38
2024-02-02T19:48:09.483Z,101125.31
2024-02-02T19:53:33.723Z,101125.78
2024-02-02T19:58:58.305Z,101141.78
2024-02-02T20:04:21.489Z,101151.31
2024-02-02T20:09:45.813Z,101155.03
2024-02-02T20:15:09.372Z,101156.41
2024-02-02T20:20:32.493Z,101143.50
2024-02-02T20:25:56.944Z,101135.16
2024-02-02T20:31:21.650Z,101141.41
2024-02-02T20:36:44.768Z,101149.75
2024-02-02T20:42:09.411Z,101153.53
2024-02-02T20:47:32.381Z,101168.97
2024-02-02T20:52:55.242Z,101163.16
2024-02-02T20:58:19.405Z,101137.75
2024-02-02T21:03:42.488Z,101131.75
2024-02-02T21:09:05.812Z,101149.66
2024-02-02T21:14:30.072Z,101138.44
2024-02-02T21:19:53.212Z,101141.03
2024-02-02T21:25:16.441Z,101144.00
2024-02-02T21:30:41.830Z,101154.31
2024-02-02T21:36:08.610Z,101134.31
2024-02-02T21:41:32.951Z,101126.06
2024-02-02T21:46:57.545Z,101147.03
2024-02-02T21:52:20.472Z,101136.06
2024-02-02T21:57:43.567Z,101120.63
2024-02-02T22:03:07.979Z,101116.91
2024-02-02T22:08:33.682Z,101116.34
2024-02-02T22:13:58.112Z,101126.69
2024-02-02T22:19:22.867Z,101123.00
2024-02-02T22:24:46.062Z,101117.88
2024-02-02T22:30:10.358Z,101112.91
2024-02-02T22:35:34.703Z,101108.06
2024-02-02T22:40:57.777Z,101089.22
2024-02-02T22:46:20.710Z,101085.75
2024-02-02T22:51:48.648Z,101089.78
2024-02-02T22:57:11.790Z,101103.03
2024-02-02T23:02:34.656Z,101102.50
2024-02-02T23:07:58.863Z,101106.56
2024-02-02T23:13:22.427Z,101093.56
2024-02-02T23:18:45.951Z,101100.47
2024-02-02T23:24:10.872Z,101117.63
2024-02-02T23:29:33.971Z,101120.91
2024-02-02T23:34:56.923Z,101117.34
2024-02-02T23:40:21.160Z,101103.06
2024-02-02T23:45:44.291Z,101100.22
2024-02-02T23:51:07.437Z,101107.50
2024-02-02T23:56:31.694Z,101085.69
